Time;durP1;ratioP1;P1;durP2;ratioP2;P2;SDS_P1;SDS_P2;PMS_P1;PMS_P2;Temp;Humidity;BMP_temperature;BMP_pressure;BME280_temperature;BME280_humidity;BME280_pressure;Samples;Min_cycle;Max_cycle;Signal;HPM_P1;HPM_P2
2023/06/17 00:03:43;;;;;;;4.83;4.40;;;20.40;27.70;;;;;;10442061;28;20261;-66
2023/06/17 00:08:46;;;;;;;4.40;4.10;;;20.30;28.30;;;;;;10436200;28;20233;-71
2023/06/17 00:13:49;;;;;;;4.30;4.00;;;20.20;28.10;;;;;;10431477;28;20229;-69
2023/06/17 00:18:55;;;;;;;7.53;4.47;;;20.10;28.20;;;;;;10431863;28;20576;-69
2023/06/17 00:23:58;;;;;;;4.47;4.00;;;19.90;28.70;;;;;;10422295;28;20849;-69
2023/06/17 00:29:02;;;;;;;5.13;4.63;;;19.70;28.50;;;;;;10420840;28;20240;-69
2023/06/17 00:34:06;;;;;;;5.03;4.17;;;19.50;28.80;;;;;;10425701;28;20598;-69
2023/06/17 00:39:09;;;;;;;4.77;4.37;;;19.20;29.40;;;;;;10426660;28;20328;-69
2023/06/17 00:44:13;;;;;;;4.57;4.17;;;19.00;29.30;;;;;;10424945;28;20229;-69
2023/06/17 00:49:18;;;;;;;4.63;3.90;;;18.80;29.40;;;;;;10422321;28;20252;-69
2023/06/17 00:54:22;;;;;;;6.57;4.50;;;18.70;30.20;;;;;;10422723;28;20312;-69
2023/06/17 00:59:25;;;;;;;5.43;4.57;;;18.70;29.70;;;;;;10425638;28;20261;-69
2023/06/17 01:04:31;;;;;;;4.57;4.17;;;18.70;29.80;;;;;;10427988;28;20233;-69
2023/06/17 01:09:39;;;;;;;5.27;4.60;;;18.60;30.30;;;;;;10428751;28;20916;-69
2023/06/17 01:14:43;;;;;;;4.77;4.43;;;18.50;31.30;;;;;;10426970;28;20240;-69
2023/06/17 01:19:48;;;;;;;4.70;4.30;;;18.40;30.10;;;;;;10426587;28;20234;-69
2023/06/17 01:24:56;;;;;;;4.47;3.73;;;18.30;30.50;;;;;;10421228;28;20719;-69
2023/06/17 01:29:59;;;;;;;5.30;4.90;;;18.30;30.60;;;;;;10426215;28;20273;-69
2023/06/17 01:35:06;;;;;;;5.10;4.60;;;18.40;30.20;;;;;;10423573;28;20265;-69
2023/06/17 01:40:14;;;;;;;5.07;4.57;;;18.30;31.60;;;;;;10424682;28;20229;-69
2023/06/17 01:45:19;;;;;;;5.00;4.50;;;18.10;31.40;;;;;;10426243;28;20259;-69
2023/06/17 01:50:22;;;;;;;5.13;3.90;;;17.90;30.50;;;;;;10435074;28;20247;-69
2023/06/17 01:55:27;;;;;;;4.10;3.70;;;17.70;30.50;;;;;;10428123;28;20226;-69
2023/06/17 02:00:30;;;;;;;3.80;3.50;;;17.60;31.10;;;;;;10432238;28;20231;-69
2023/06/17 02:05:33;;;;;;;5.70;3.77;;;17.70;30.90;;;;;;10432297;28;20225;-69
2023/06/17 02:10:38;;;;;;;4.50;3.87;;;17.70;30.70;;;;;;10422401;28;20239;-69
2023/06/17 02:15:42;;;;;;;4.87;4.47;;;17.80;31.30;;;;;;10427024;28;20229;-69
2023/06/17 02:20:46;;;;;;;5.73;4.13;;;17.80;30.80;;;;;;10420904;28;20233;-71
2023/06/17 02:25:50;;;;;;;5.30;4.83;;;17.70;30.60;;;;;;10437481;28;20224;-71
2023/06/17 02:30:53;;;;;;;5.10;4.70;;;17.50;31.30;;;;;;10431481;28;20237;-71
2023/06/17 02:35:57;;;;;;;5.13;4.50;;;17.30;31.00;;;;;;10435812;28;20235;-71
2023/06/17 02:41:01;;;;;;;5.20;4.80;;;17.10;31.50;;;;;;10446895;28;20226;-71
2023/06/17 02:46:04;;;;;;;4.13;3.83;;;16.90;32.40;;;;;;10431588;28;20261;-71
2023/06/17 02:51:09;;;;;;;5.07;4.57;;;16.80;31.70;;;;;;10436868;28;20707;-71
2023/06/17 02:56:13;;;;;;;4.73;4.37;;;16.70;31.80;;;;;;10441345;28;20707;-71
2023/06/17 03:01:17;;;;;;;5.37;4.90;;;16.70;32.50;;;;;;10432193;28;20628;-71
2023/06/17 03:06:21;;;;;;;4.37;4.07;;;16.60;31.80;;;;;;10429771;28;20228;-71
2023/06/17 03:11:28;;;;;;;3.80;3.60;;;16.50;31.90;;;;;;10432922;28;20684;-72
2023/06/17 03:16:33;;;;;;;4.97;4.53;;;16.50;32.60;;;;;;10435993;28;20233;-71
2023/06/17 03:21:40;;;;;;;5.23;4.73;;;16.60;32.60;;;;;;10434213;28;20314;-71
2023/06/17 03:26:45;;;;;;;6.60;4.77;;;16.60;32.40;;;;;;10445191;28;20229;-71
2023/06/17 03:31:49;;;;;;;5.10;4.70;;;16.60;32.80;;;;;;10437169;28;20663;-71
2023/06/17 03:36:52;;;;;;;5.47;5.00;;;16.60;32.30;;;;;;10434596;28;20772;-71
2023/06/17 03:41:56;;;;;;;4.80;4.40;;;16.60;32.30;;;;;;10431670;28;20226;-71
2023/06/17 03:47:00;;;;;;;5.73;4.93;;;16.60;32.90;;;;;;10427491;28;20237;-71
2023/06/17 03:52:03;;;;;;;5.37;4.87;;;16.50;32.60;;;;;;10432093;28;20232;-70
2023/06/17 03:57:08;;;;;;;5.70;4.90;;;16.40;33.10;;;;;;10428682;28;20247;-70
2023/06/17 04:02:11;;;;;;;8.47;5.33;;;16.30;33.30;;;;;;10435251;28;20232;-71
2023/06/17 04:07:16;;;;;;;4.97;4.60;;;16.20;33.20;;;;;;10425637;28;20231;-71
2023/06/17 04:12:21;;;;;;;6.07;5.07;;;16.20;33.20;;;;;;10439839;28;20227;-71
2023/06/17 04:17:24;;;;;;;5.50;5.10;;;16.20;33.70;;;;;;10435238;28;20549;-71
2023/06/17 04:22:27;;;;;;;6.00;5.43;;;16.30;33.30;;;;;;10430252;28;20270;-71
2023/06/17 04:27:32;;;;;;;6.30;5.70;;;16.30;33.30;;;;;;10429010;28;20256;-71
2023/06/17 04:32:38;;;;;;;5.40;4.90;;;16.40;34.10;;;;;;10427329;28;20253;-71
2023/06/17 04:37:42;;;;;;;6.57;5.97;;;16.40;33.30;;;;;;10431671;28;20237;-71
2023/06/17 04:42:47;;;;;;;6.90;5.83;;;16.50;33.40;;;;;;10428940;28;20312;-70
2023/06/17 04:47:50;;;;;;;6.77;6.07;;;16.60;34.40;;;;;;10433756;28;20239;-71
2023/06/17 04:52:53;;;;;;;5.93;5.43;;;16.60;33.80;;;;;;10423591;28;20278;-71
2023/06/17 04:57:58;;;;;;;7.03;6.43;;;16.70;33.90;;;;;;10424992;28;20267;-71
2023/06/17 05:03:01;;;;;;;7.63;5.77;;;16.80;34.90;;;;;;10430133;28;20263;-71
2023/06/17 05:08:05;;;;;;;6.20;5.70;;;16.90;34.40;;;;;;10424311;28;20230;-71
2023/06/17 05:13:09;;;;;;;6.47;5.87;;;16.90;34.50;;;;;;10421636;28;20232;-71
2023/06/17 05:18:12;;;;;;;6.27;5.70;;;17.10;35.40;;;;;;10423432;28;20228;-71
2023/06/17 05:23:15;;;;;;;6.10;5.60;;;17.20;34.80;;;;;;10428248;28;20256;-71
2023/06/17 05:28:20;;;;;;;6.60;5.93;;;17.40;35.00;;;;;;10426762;28;20252;-71
2023/06/17 05:33:24;;;;;;;6.30;5.80;;;17.50;35.70;;;;;;10422198;28;20225;-71
2023/06/17 05:38:27;;;;;;;6.70;6.10;;;17.80;35.20;;;;;;10427042;28;20243;-71
2023/06/17 05:43:32;;;;;;;7.03;6.43;;;17.90;36.10;;;;;;10422497;28;20220;-71
2023/06/17 05:48:35;;;;;;;6.57;6.07;;;18.10;36.00;;;;;;10429424;28;20738;-71
2023/06/17 05:53:38;;;;;;;7.33;6.73;;;18.30;35.30;;;;;;10429909;28;20225;-71
2023/06/17 05:58:43;;;;;;;6.40;6.00;;;18.50;35.30;;;;;;10426749;28;20827;-71
2023/06/17 06:03:46;;;;;;;6.80;6.20;;;18.70;36.30;;;;;;10435799;28;20229;-70
2023/06/17 06:08:50;;;;;;;7.10;6.50;;;18.90;35.90;;;;;;10443192;28;20251;-70
2023/06/17 06:13:54;;;;;;;6.77;6.17;;;19.10;35.70;;;;;;10447166;28;20225;-70
2023/06/17 06:18:58;;;;;;;5.97;5.53;;;19.40;36.80;;;;;;10440601;28;20245;-70
2023/06/17 06:24:01;;;;;;;6.03;5.43;;;19.60;36.20;;;;;;10446580;28;20220;-69
2023/06/17 06:29:07;;;;;;;5.23;4.80;;;19.90;36.30;;;;;;10438749;28;20236;-69
2023/06/17 06:34:10;;;;;;;6.63;4.93;;;20.20;35.50;;;;;;10445877;28;20347;-69
2023/06/17 06:39:13;;;;;;;5.70;5.13;;;20.40;34.80;;;;;;10447421;28;20225;-69
2023/06/17 06:44:19;;;;;;;5.20;4.70;;;20.70;34.10;;;;;;10440318;28;20229;-69
2023/06/17 06:49:22;;;;;;;5.53;5.03;;;20.90;33.80;;;;;;10433720;28;20247;-69
2023/06/17 06:54:25;;;;;;;5.43;4.93;;;21.10;33.40;;;;;;10441107;28;20224;-70
2023/06/17 06:59:30;;;;;;;6.80;5.53;;;21.30;33.40;;;;;;10439879;28;20727;-70
2023/06/17 07:04:33;;;;;;;5.70;5.20;;;21.50;33.30;;;;;;10432716;28;20324;-70
2023/06/17 07:09:36;;;;;;;5.50;4.97;;;21.70;32.40;;;;;;10441487;28;20724;-69
2023/06/17 07:14:40;;;;;;;5.20;4.70;;;21.90;32.30;;;;;;10439704;28;20243;-69
2023/06/17 07:19:44;;;;;;;4.87;4.40;;;22.10;32.40;;;;;;10431917;28;20225;-69
2023/06/17 07:24:47;;;;;;;5.70;4.93;;;22.20;31.70;;;;;;10434675;28;20243;-69
2023/06/17 07:29:51;;;;;;;4.67;4.27;;;22.40;31.70;;;;;;10432875;28;20247;-69
2023/06/17 07:34:55;;;;;;;5.70;5.17;;;22.60;31.50;;;;;;10435474;28;20582;-69
2023/06/17 07:40:00;;;;;;;4.73;4.33;;;22.80;31.30;;;;;;10431259;28;20233;-69
2023/06/17 07:45:05;;;;;;;5.00;4.43;;;23.00;31.10;;;;;;10443878;28;20231;-67
2023/06/17 07:50:09;;;;;;;5.33;4.83;;;23.20;30.90;;;;;;10433314;28;20234;-66
2023/06/17 07:55:13;;;;;;;6.07;5.37;;;23.40;30.70;;;;;;10437450;28;20225;-66
2023/06/17 08:00:18;;;;;;;4.83;4.43;;;23.60;30.10;;;;;;10432391;28;20225;-69
2023/06/17 08:05:21;;;;;;;5.87;4.67;;;23.80;30.00;;;;;;10438312;28;20236;-70
2023/06/17 08:10:24;;;;;;;5.43;5.03;;;24.00;30.30;;;;;;10429152;28;20235;-69
2023/06/17 08:15:29;;;;;;;5.77;4.73;;;24.30;30.20;;;;;;10442859;28;20647;-69
2023/06/17 08:20:32;;;;;;;6.00;5.40;;;24.50;29.20;;;;;;10445986;28;21053;-69
2023/06/17 08:25:36;;;;;;;5.23;4.83;;;24.70;28.60;;;;;;10437751;28;20780;-69
2023/06/17 08:30:40;;;;;;;5.43;4.80;;;24.90;28.60;;;;;;10435295;28;20786;-70
2023/06/17 08:35:43;;;;;;;4.70;4.40;;;25.10;28.70;;;;;;10434863;28;20235;-71
2023/06/17 08:40:46;;;;;;;5.27;4.80;;;25.30;28.50;;;;;;10431548;28;20233;-71
2023/06/17 08:45:53;;;;;;;4.73;4.33;;;25.50;27.80;;;;;;10442835;28;20229;-69
2023/06/17 08:50:57;;;;;;;4.70;4.30;;;25.70;26.90;;;;;;10427658;28;20244;-69
2023/06/17 08:56:02;;;;;;;6.83;4.70;;;25.90;27.10;;;;;;10425582;28;20237;-69
2023/06/17 09:01:07;;;;;;;5.17;4.67;;;26.10;26.80;;;;;;10427207;28;20221;-66
2023/06/17 09:06:18;;;;;;;5.30;4.60;;;26.20;24.90;;;;;;10435078;28;20226;-66
2023/06/17 09:11:22;;;;;;;5.17;4.77;;;26.40;23.60;;;;;;10430620;28;20247;-66
2023/06/17 09:16:28;;;;;;;6.17;4.63;;;26.50;24.30;;;;;;10430160;28;20234;-66
2023/06/17 09:21:31;;;;;;;6.60;4.90;;;26.50;24.10;;;;;;10427218;28;20314;-66
2023/06/17 09:26:36;;;;;;;5.00;4.60;;;26.50;23.70;;;;;;10421722;28;20893;-66
2023/06/17 09:31:51;;;;;;;4.80;4.40;;;26.60;24.60;;;;;;10426455;28;20714;-71
2023/06/17 09:37:00;;;;;;;7.43;4.73;;;26.70;21.80;;;;;;10432177;28;20746;-70
2023/06/17 09:42:08;;;;;;;5.10;4.63;;;26.90;22.40;;;;;;10428672;28;20356;-71
2023/06/17 09:47:14;;;;;;;5.80;4.67;;;27.00;21.40;;;;;;10427311;28;20224;-70
2023/06/17 09:52:17;;;;;;;4.63;4.10;;;27.00;21.40;;;;;;10433339;28;20225;-71
2023/06/17 09:57:21;;;;;;;4.73;4.33;;;26.90;22.20;;;;;;10430598;28;20222;-71
2023/06/17 10:02:25;;;;;;;9.50;5.10;;;26.90;22.10;;;;;;10434647;28;20256;-72
2023/06/17 10:07:29;;;;;;;11.83;5.00;;;26.80;21.70;;;;;;10420396;28;20226;-71
2023/06/17 10:12:34;;;;;;;4.70;4.40;;;26.80;23.10;;;;;;10425361;28;20236;-71
2023/06/17 10:17:40;;;;;;;4.43;4.13;;;26.80;22.00;;;;;;10420534;28;20716;-72
2023/06/17 10:22:44;;;;;;;4.50;4.20;;;27.00;21.60;;;;;;10421830;28;20305;-72
2023/06/17 10:27:47;;;;;;;4.53;4.13;;;27.30;21.90;;;;;;10428660;28;20248;-72
2023/06/17 10:32:56;;;;;;;5.13;4.73;;;27.50;21.00;;;;;;10426045;28;20244;-71
2023/06/17 10:37:59;;;;;;;4.97;4.57;;;27.60;19.10;;;;;;10433324;28;20233;-71
2023/06/17 10:43:19;;;;;;;4.50;4.20;;;27.50;20.00;;;;;;10433280;28;20221;-71
2023/06/17 10:48:30;;;;;;;5.23;4.83;;;27.50;17.00;;;;;;10427766;28;20233;-71
2023/06/17 10:53:36;;;;;;;4.93;4.53;;;27.40;18.10;;;;;;10427513;28;20235;-70
2023/06/17 10:58:46;;;;;;;5.70;5.10;;;27.30;19.60;;;;;;10426296;28;20245;-70
2023/06/17 11:03:50;;;;;;;4.90;4.60;;;27.30;18.40;;;;;;10417425;28;20214;-67
2023/06/17 11:08:53;;;;;;;4.57;4.17;;;27.30;19.20;;;;;;10426062;28;20800;-71
2023/06/17 11:13:57;;;;;;;4.70;4.30;;;27.20;20.20;;;;;;10430836;28;20250;-71
2023/06/17 11:19:01;;;;;;;4.37;4.07;;;27.30;19.70;;;;;;10443433;28;20312;-73
2023/06/17 11:24:05;;;;;;;4.80;4.40;;;27.50;19.80;;;;;;10432040;28;20663;-72
2023/06/17 11:29:09;;;;;;;16.13;5.23;;;27.70;19.90;;;;;;10433773;28;20573;-73
2023/06/17 11:34:14;;;;;;;9.20;4.90;;;27.90;19.10;;;;;;10437165;28;20221;-73
2023/06/17 11:39:18;;;;;;;8.47;5.00;;;28.00;18.50;;;;;;10420592;28;20248;-73
2023/06/17 11:44:21;;;;;;;4.73;4.40;;;28.00;18.70;;;;;;10430867;28;20232;-73
2023/06/17 11:49:29;;;;;;;4.87;4.47;;;28.00;18.50;;;;;;10422018;28;20226;-73
2023/06/17 11:54:32;;;;;;;5.23;4.73;;;28.10;16.60;;;;;;10426940;28;20247;-72
2023/06/17 11:59:35;;;;;;;4.53;4.23;;;28.20;17.50;;;;;;10433689;28;20232;-72
2023/06/17 12:04:43;;;;;;;4.70;4.40;;;28.20;17.40;;;;;;10428424;28;20229;-71
2023/06/17 12:09:51;;;;;;;4.50;4.20;;;28.20;16.30;;;;;;10438137;28;20336;-70
2023/06/17 12:14:59;;;;;;;14.93;6.00;;;28.30;16.70;;;;;;10432610;28;20221;-70
2023/06/17 12:20:18;;;;;;;4.80;4.50;;;28.20;16.50;;;;;;10433201;28;20251;-67
2023/06/17 12:25:21;;;;;;;4.80;4.37;;;28.30;16.50;;;;;;10428311;28;20225;-67
2023/06/17 12:30:25;;;;;;;4.63;4.10;;;28.40;17.40;;;;;;10428572;28;20238;-67
2023/06/17 12:35:29;;;;;;;5.77;5.27;;;28.60;18.00;;;;;;10426271;28;20592;-67
2023/06/17 12:40:33;;;;;;;4.40;4.10;;;28.70;16.80;;;;;;10423321;28;20302;-67
2023/06/17 12:45:37;;;;;;;5.10;4.70;;;28.90;17.20;;;;;;10427027;28;20348;-65
2023/06/17 12:50:44;;;;;;;5.67;4.57;;;29.10;16.60;;;;;;10428500;28;20244;-68
2023/06/17 12:55:47;;;;;;;4.90;4.40;;;29.10;16.20;;;;;;10429229;28;20240;-72
2023/06/17 13:00:50;;;;;;;4.43;4.07;;;29.20;16.50;;;;;;10424740;28;20790;-75
2023/06/17 13:05:55;;;;;;;5.20;4.80;;;29.20;16.70;;;;;;10424132;28;20352;-77
2023/06/17 13:10:58;;;;;;;5.77;4.87;;;29.20;15.50;;;;;;10425953;28;20224;-75
2023/06/17 13:16:02;;;;;;;4.83;4.43;;;29.20;15.80;;;;;;10416536;28;20773;-68
2023/06/17 13:21:06;;;;;;;5.13;4.63;;;29.10;16.40;;;;;;10419765;28;20263;-67
2023/06/17 13:26:10;;;;;;;4.60;4.27;;;29.10;15.60;;;;;;10422725;28;20512;-67
2023/06/17 13:31:13;;;;;;;5.80;4.50;;;29.10;15.90;;;;;;10426388;28;20224;-67
2023/06/17 13:36:18;;;;;;;4.87;4.40;;;29.10;15.90;;;;;;10430971;28;20237;-67
2023/06/17 13:41:21;;;;;;;6.53;4.40;;;29.20;15.80;;;;;;10426549;28;20226;-74
2023/06/17 13:46:24;;;;;;;5.00;4.50;;;29.30;15.90;;;;;;10422360;28;20238;-73
2023/06/17 13:51:29;;;;;;;5.27;4.77;;;29.40;15.20;;;;;;10415378;28;20636;-75
2023/06/17 13:56:32;;;;;;;5.00;4.60;;;29.50;14.60;;;;;;10416195;28;20239;-75
2023/06/17 14:01:35;;;;;;;5.63;4.70;;;29.60;15.00;;;;;;10415323;28;20325;-67
2023/06/17 14:06:41;;;;;;;6.17;4.93;;;29.60;14.30;;;;;;10412302;28;20728;-67
2023/06/17 14:11:44;;;;;;;4.90;4.50;;;29.70;13.80;;;;;;10416499;28;20228;-67
2023/06/17 14:16:47;;;;;;;5.00;4.60;;;29.70;14.50;;;;;;10416239;28;20241;-75
2023/06/17 14:21:59;;;;;;;5.13;4.63;;;29.70;14.20;;;;;;10421887;28;20236;-67
2023/06/17 14:27:35;;;;;;;5.40;5.00;;;29.70;12.80;;;;;;10423140;28;20240;-67
2023/06/17 14:32:39;;;;;;;5.20;4.80;;;29.80;10.80;;;;;;10420744;28;20233;-67
2023/06/17 14:37:45;;;;;;;4.67;4.37;;;29.90;13.50;;;;;;10426465;28;20233;-71
2023/06/17 14:42:48;;;;;;;4.87;4.30;;;29.90;13.00;;;;;;10420523;28;20239;-71
2023/06/17 14:47:52;;;;;;;5.17;4.77;;;29.90;13.70;;;;;;10419965;28;20239;-71
2023/06/17 14:52:56;;;;;;;5.43;4.60;;;30.00;13.00;;;;;;10424266;28;20232;-71
2023/06/17 14:58:00;;;;;;;4.90;4.37;;;30.10;12.80;;;;;;10433724;28;20607;-67
2023/06/17 15:03:07;;;;;;;4.60;4.20;;;30.10;13.00;;;;;;10438875;28;20228;-67
2023/06/17 15:08:14;;;;;;;4.80;4.50;;;30.10;12.90;;;;;;10430320;28;20229;-67
2023/06/17 15:13:17;;;;;;;5.03;4.53;;;30.10;12.80;;;;;;10426169;28;21024;-67
2023/06/17 15:18:21;;;;;;;4.90;4.50;;;30.10;12.90;;;;;;10426836;28;20570;-67
2023/06/17 15:23:25;;;;;;;4.90;4.60;;;30.10;12.80;;;;;;10419134;28;20221;-71
2023/06/17 15:28:28;;;;;;;4.50;4.20;;;30.00;12.40;;;;;;10422190;28;20229;-71
2023/06/17 15:33:32;;;;;;;4.67;4.37;;;29.90;12.80;;;;;;10418560;28;20236;-71
2023/06/17 15:38:36;;;;;;;4.60;4.30;;;29.90;12.60;;;;;;10420572;28;20246;-71
2023/06/17 15:43:39;;;;;;;4.93;4.53;;;29.90;12.20;;;;;;10430744;28;20233;-72
2023/06/17 15:48:42;;;;;;;4.93;4.53;;;29.90;12.20;;;;;;10426137;28;20230;-72
2023/06/17 15:53:47;;;;;;;5.10;4.70;;;29.90;12.20;;;;;;10441234;28;20236;-72
2023/06/17 15:58:54;;;;;;;5.23;4.83;;;29.90;12.00;;;;;;10432267;28;20237;-72
2023/06/17 16:03:58;;;;;;;7.47;4.60;;;29.90;12.00;;;;;;10438877;28;20780;-71
2023/06/17 16:09:02;;;;;;;4.70;4.40;;;29.90;12.00;;;;;;10415394;28;20307;-71
2023/06/17 16:14:06;;;;;;;7.00;4.60;;;29.90;11.60;;;;;;10419048;28;20257;-71
2023/06/17 16:19:09;;;;;;;4.80;4.40;;;29.90;11.60;;;;;;10423800;28;20728;-71
2023/06/17 16:24:13;;;;;;;5.27;4.47;;;29.80;11.60;;;;;;10419950;28;20229;-71
2023/06/17 16:29:17;;;;;;;4.80;4.40;;;29.80;11.30;;;;;;10421113;28;20228;-71
2023/06/17 16:34:20;;;;;;;5.20;4.70;;;29.70;11.60;;;;;;10429745;28;20906;-71
2023/06/17 16:39:25;;;;;;;5.37;4.87;;;29.80;12.40;;;;;;10427992;28;20632;-71
2023/06/17 16:44:28;;;;;;;4.70;4.30;;;29.80;11.30;;;;;;10425670;28;20236;-71
2023/06/17 16:49:31;;;;;;;4.70;4.40;;;29.80;11.60;;;;;;10429765;28;20814;-71
2023/06/17 16:54:36;;;;;;;5.17;4.67;;;29.80;11.30;;;;;;10426527;28;20232;-71
2023/06/17 16:59:39;;;;;;;4.87;4.50;;;29.70;10.80;;;;;;10425853;28;20233;-71
2023/06/17 17:04:42;;;;;;;5.00;4.63;;;29.70;11.50;;;;;;10433452;28;20232;-71
2023/06/17 17:09:47;;;;;;;5.03;4.50;;;29.60;11.50;;;;;;10431052;28;20229;-68
2023/06/17 17:14:50;;;;;;;4.90;4.50;;;29.50;11.10;;;;;;10432966;28;20240;-71
2023/06/17 17:19:54;;;;;;;4.50;4.20;;;29.40;11.60;;;;;;10424857;28;20737;-71
2023/06/17 17:24:59;;;;;;;5.00;4.60;;;29.50;11.70;;;;;;10436846;28;20350;-71
2023/06/17 17:30:02;;;;;;;4.60;4.23;;;29.50;11.70;;;;;;10433148;28;20227;-71
2023/06/17 17:35:07;;;;;;;4.80;4.43;;;29.60;11.90;;;;;;10427517;28;20229;-71
2023/06/17 17:40:13;;;;;;;5.13;4.63;;;29.70;11.70;;;;;;10424672;28;20794;-71
2023/06/17 17:45:16;;;;;;;6.27;5.20;;;29.70;11.50;;;;;;10427948;28;20256;-74
2023/06/17 17:50:19;;;;;;;5.20;4.80;;;29.80;11.30;;;;;;10432329;28;20232;-74
2023/06/17 17:55:24;;;;;;;4.80;4.40;;;29.80;11.50;;;;;;10441437;28;20241;-74
2023/06/17 18:00:28;;;;;;;4.97;4.50;;;29.70;11.60;;;;;;10440527;28;20622;-74
2023/06/17 18:05:31;;;;;;;5.23;4.47;;;29.70;11.70;;;;;;10431518;28;20224;-73
2023/06/17 18:10:35;;;;;;;5.17;4.67;;;29.60;11.60;;;;;;10436577;28;20721;-74
2023/06/17 18:15:39;;;;;;;4.77;4.37;;;29.50;11.60;;;;;;10440052;28;20744;-73
2023/06/17 18:20:42;;;;;;;4.90;4.60;;;29.40;11.90;;;;;;10434149;28;20226;-72
2023/06/17 18:25:46;;;;;;;5.03;4.60;;;29.40;12.20;;;;;;10431377;28;20825;-71
2023/06/17 18:30:49;;;;;;;5.07;4.57;;;29.30;12.40;;;;;;10427721;28;20240;-71
2023/06/17 18:35:53;;;;;;;4.80;4.40;;;29.30;12.70;;;;;;10430329;28;20613;-71
2023/06/17 18:40:57;;;;;;;5.90;4.43;;;29.20;12.70;;;;;;10433825;28;20710;-71
2023/06/17 18:46:00;;;;;;;5.43;4.70;;;29.10;12.80;;;;;;10430311;28;20788;-74
2023/06/17 18:51:04;;;;;;;6.07;4.67;;;29.00;13.20;;;;;;10430797;28;20232;-73
2023/06/17 18:56:08;;;;;;;5.13;4.73;;;28.80;13.20;;;;;;10432006;28;20229;-72
2023/06/17 19:01:11;;;;;;;4.70;4.30;;;28.70;13.50;;;;;;10437240;28;20224;-73
2023/06/17 19:06:15;;;;;;;4.27;3.97;;;28.60;13.70;;;;;;10432447;28;20232;-73
2023/06/17 19:11:20;;;;;;;5.17;4.67;;;28.40;14.60;;;;;;10430003;28;20251;-74
2023/06/17 19:16:23;;;;;;;5.17;4.53;;;28.30;14.20;;;;;;10430625;28;20873;-73
2023/06/17 19:21:27;;;;;;;5.10;4.70;;;28.20;14.40;;;;;;10432404;28;20229;-73
2023/06/17 19:26:32;;;;;;;4.97;4.57;;;28.00;14.50;;;;;;10432752;28;20235;-73
2023/06/17 19:31:35;;;;;;;4.97;4.50;;;27.90;14.70;;;;;;10431204;28;20815;-73
2023/06/17 19:36:38;;;;;;;4.87;4.50;;;27.80;14.70;;;;;;10429416;28;20655;-73
2023/06/17 19:41:43;;;;;;;5.93;4.73;;;27.60;14.80;;;;;;10428468;28;20217;-73
2023/06/17 19:46:46;;;;;;;5.87;5.27;;;27.40;15.20;;;;;;10431138;28;20305;-73
2023/06/17 19:51:49;;;;;;;5.60;5.10;;;27.30;15.20;;;;;;10428253;28;20231;-73
2023/06/17 19:56:54;;;;;;;5.53;5.07;;;27.10;15.40;;;;;;10432689;28;20236;-73
2023/06/17 20:01:57;;;;;;;5.10;4.70;;;27.00;15.90;;;;;;10438575;28;20217;-73
2023/06/17 20:07:01;;;;;;;5.30;4.90;;;26.90;15.80;;;;;;10431121;28;20313;-73
2023/06/17 20:12:06;;;;;;;5.80;5.30;;;26.70;15.90;;;;;;10430369;28;20247;-73
2023/06/17 20:17:10;;;;;;;6.23;5.73;;;26.50;16.20;;;;;;10433559;28;20265;-73
2023/06/17 20:22:13;;;;;;;5.50;5.00;;;26.30;16.00;;;;;;10432990;28;20227;-73
2023/06/17 20:27:18;;;;;;;5.67;5.27;;;26.10;16.30;;;;;;10429939;28;20740;-73
2023/06/17 20:32:21;;;;;;;5.90;5.13;;;25.90;16.70;;;;;;10427876;28;20236;-73
2023/06/17 20:37:24;;;;;;;5.93;5.40;;;25.70;16.70;;;;;;10427655;28;20238;-73
2023/06/17 20:42:29;;;;;;;5.77;5.27;;;25.30;16.90;;;;;;10427611;28;20229;-73
2023/06/17 20:47:32;;;;;;;5.87;5.10;;;24.70;17.60;;;;;;10422016;28;20256;-73
2023/06/17 20:52:36;;;;;;;5.90;5.40;;;24.20;17.90;;;;;;10434051;28;20310;-73
2023/06/17 20:57:40;;;;;;;5.80;5.30;;;23.90;17.80;;;;;;10427956;28;20332;-73
2023/06/17 21:02:44;;;;;;;5.83;5.43;;;23.70;18.50;;;;;;10422815;28;20689;-73
2023/06/17 21:07:47;;;;;;;6.00;5.50;;;23.60;18.50;;;;;;10430806;28;20383;-73
2023/06/17 21:12:52;;;;;;;6.47;5.87;;;23.50;18.70;;;;;;10426936;28;20243;-73
2023/06/17 21:17:55;;;;;;;6.40;5.80;;;23.40;19.20;;;;;;10421434;28;20226;-73
2023/06/17 21:22:59;;;;;;;6.83;6.30;;;23.20;19.10;;;;;;10430281;28;20236;-73
2023/06/17 21:28:04;;;;;;;6.73;6.23;;;23.10;19.10;;;;;;10426727;28;20699;-72
2023/06/17 21:33:07;;;;;;;6.77;6.17;;;22.80;19.70;;;;;;10430682;28;20252;-73
2023/06/17 21:38:11;;;;;;;6.50;5.90;;;22.50;19.60;;;;;;10435127;28;20674;-73
2023/06/17 21:43:16;;;;;;;6.97;6.37;;;22.30;19.70;;;;;;10442980;28;20920;-72
2023/06/17 21:48:19;;;;;;;6.90;6.30;;;21.90;20.40;;;;;;10434748;28;20796;-72
2023/06/17 21:53:22;;;;;;;6.20;5.70;;;21.60;20.50;;;;;;10429463;28;21201;-73
2023/06/17 21:58:27;;;;;;;7.67;5.70;;;21.40;20.70;;;;;;10434743;28;20236;-73
2023/06/17 22:03:30;;;;;;;9.13;5.77;;;21.40;21.40;;;;;;10432302;28;20251;-73
2023/06/17 22:08:33;;;;;;;8.63;5.60;;;21.40;21.10;;;;;;10427501;28;20290;-73
2023/06/17 22:13:48;;;;;;;5.67;5.27;;;21.30;21.00;;;;;;10435925;28;20290;-73
2023/06/17 22:18:52;;;;;;;6.17;5.67;;;21.30;21.50;;;;;;10435381;28;20236;-73
2023/06/17 22:23:55;;;;;;;6.37;5.77;;;21.30;21.40;;;;;;10432084;28;20233;-72
2023/06/17 22:29:00;;;;;;;6.47;5.87;;;21.30;21.40;;;;;;10434157;28;20599;-73
2023/06/17 22:34:03;;;;;;;6.17;5.57;;;21.30;21.70;;;;;;10441083;28;20225;-71
2023/06/17 22:39:06;;;;;;;6.90;5.50;;;21.40;21.50;;;;;;10428130;28;20240;-72
2023/06/17 22:44:11;;;;;;;6.37;5.87;;;21.40;21.60;;;;;;10436267;28;20301;-73
2023/06/17 22:49:14;;;;;;;6.53;5.97;;;21.40;22.20;;;;;;10434281;28;20727;-73
2023/06/17 22:54:17;;;;;;;6.73;6.20;;;21.30;21.80;;;;;;10428805;28;20329;-73
2023/06/17 22:59:22;;;;;;;6.43;5.57;;;21.30;21.70;;;;;;10432274;28;20221;-72
2023/06/17 23:04:25;;;;;;;7.03;6.43;;;21.40;22.20;;;;;;10424108;28;20222;-72
2023/06/17 23:09:28;;;;;;;6.63;6.13;;;21.30;21.60;;;;;;10432291;28;20229;-72
2023/06/17 23:14:34;;;;;;;7.20;6.60;;;21.10;21.90;;;;;;10429981;28;20304;-72
2023/06/17 23:19:37;;;;;;;7.10;6.50;;;20.80;22.50;;;;;;10431616;28;20224;-72
2023/06/17 23:24:41;;;;;;;6.90;6.40;;;20.50;22.10;;;;;;10434502;28;20240;-72
2023/06/17 23:29:46;;;;;;;9.87;6.30;;;20.30;22.40;;;;;;10423685;28;20313;-72
2023/06/17 23:34:52;;;;;;;6.67;6.10;;;20.10;23.10;;;;;;10429585;28;20229;-72
2023/06/17 23:39:55;;;;;;;6.47;5.97;;;20.10;22.70;;;;;;10435317;28;20302;-72
2023/06/17 23:45:00;;;;;;;6.43;5.83;;;20.10;22.90;;;;;;10429784;28;20616;-72
2023/06/17 23:50:04;;;;;;;6.10;5.60;;;20.20;23.40;;;;;;10428974;28;20278;-72
2023/06/17 23:55:08;;;;;;;7.20;6.60;;;20.20;22.90;;;;;;10432507;28;20316;-72
